createdAt,value
2022-08-02T00:00:16.026Z,3.20
2022-08-02T00:02:44.202Z,3.03
2022-08-02T00:05:11.808Z,3.10
2022-08-02T00:07:41.200Z,3.03
2022-08-02T00:10:09.931Z,3.77
2022-08-02T00:12:36.870Z,2.93
2022-08-02T00:15:05.061Z,2.80
2022-08-02T00:17:31.723Z,3.40
2022-08-02T00:19:58.334Z,3.70
2022-08-02T00:22:25.009Z,3.30
2022-08-02T00:24:51.573Z,3.13
2022-08-02T00:27:18.216Z,3.37
2022-08-02T00:29:52.274Z,3.67
2022-08-02T00:32:20.219Z,3.47
2022-08-02T00:34:47.104Z,3.17
2022-08-02T00:37:13.823Z,3.80
2022-08-02T00:39:42.210Z,3.67
2022-08-02T00:42:09.961Z,3.27
2022-08-02T00:44:36.851Z,3.50
2022-08-02T00:47:03.545Z,3.63
2022-08-02T00:49:30.455Z,4.00
2022-08-02T00:51:57.097Z,3.63
2022-08-02T00:54:23.882Z,3.33
2022-08-02T00:56:51.227Z,3.73
2022-08-02T00:59:18.539Z,3.70
2022-08-02T01:01:56.966Z,4.37
2022-08-02T01:04:29.761Z,3.70
2022-08-02T01:06:57.400Z,3.30
2022-08-02T01:09:24.050Z,3.70
2022-08-02T01:11:50.653Z,3.67
2022-08-02T01:14:19.054Z,3.30
2022-08-02T01:16:58.745Z,3.40
2022-08-02T01:19:31.063Z,3.50
2022-08-02T01:22:16.816Z,3.47
2022-08-02T01:25:04.224Z,3.47
2022-08-02T01:27:46.631Z,3.40
2022-08-02T01:30:14.806Z,3.50
2022-08-02T01:32:46.247Z,3.90
2022-08-02T01:35:24.772Z,3.60
2022-08-02T01:37:58.670Z,3.60
2022-08-02T01:40:32.367Z,3.13
2022-08-02T01:43:00.493Z,3.50
2022-08-02T01:45:32.703Z,3.53
2022-08-02T01:48:00.762Z,3.07
2022-08-02T01:50:33.414Z,3.70
2022-08-02T01:53:05.495Z,3.30
2022-08-02T01:55:57.573Z,3.10
2022-08-02T01:58:29.767Z,3.20
2022-08-02T02:00:58.192Z,3.10
2022-08-02T02:03:27.204Z,2.83
2022-08-02T02:05:57.328Z,3.00
2022-08-02T02:08:28.892Z,2.93
2022-08-02T02:10:57.209Z,3.10
2022-08-02T02:13:33.651Z,2.97
2022-08-02T02:16:04.690Z,3.30
2022-08-02T02:18:38.807Z,3.10
2022-08-02T02:21:05.492Z,3.10
2022-08-02T02:23:32.214Z,3.47
2022-08-02T02:26:04.238Z,2.93
2022-08-02T02:28:32.813Z,3.20
2022-08-02T02:31:07.551Z,3.17
2022-08-02T02:33:38.885Z,3.07
2022-08-02T02:36:07.774Z,3.13
2022-08-02T02:38:36.175Z,3.07
2022-08-02T02:41:04.999Z,2.97
2022-08-02T02:43:34.448Z,3.20
2022-08-02T02:46:03.529Z,3.00
2022-08-02T02:48:30.678Z,3.17
2022-08-02T02:50:58.691Z,3.03
2022-08-02T02:53:26.119Z,3.03
2022-08-02T02:56:02.361Z,3.00
2022-08-02T02:58:30.409Z,3.27
2022-08-02T03:01:16.389Z,3.60
2022-08-02T03:03:44.988Z,3.60
2022-08-02T03:06:14.795Z,3.00
2022-08-02T03:08:42.272Z,3.50
2022-08-02T03:11:10.404Z,3.83
2022-08-02T03:13:38.923Z,3.47
2022-08-02T03:16:06.531Z,3.30
2022-08-02T03:18:34.750Z,3.73
2022-08-02T03:21:02.962Z,3.30
2022-08-02T03:23:29.903Z,3.10
2022-08-02T03:25:56.608Z,3.43
2022-08-02T03:28:23.650Z,3.17
2022-08-02T03:30:50.735Z,3.33
2022-08-02T03:33:18.606Z,3.30
2022-08-02T03:35:48.047Z,3.13
2022-08-02T03:38:17.653Z,3.20
2022-08-02T03:40:45.167Z,3.57
2022-08-02T03:43:12.722Z,3.10
2022-08-02T03:45:42.890Z,3.23
2022-08-02T03:48:33.722Z,3.40
2022-08-02T03:50:59.293Z,3.23
2022-08-02T03:53:27.006Z,3.50
2022-08-02T03:55:55.844Z,3.63
2022-08-02T03:58:24.163Z,3.73
2022-08-02T04:00:53.486Z,3.67
2022-08-02T04:03:20.284Z,3.77
2022-08-02T04:06:00.758Z,3.37
2022-08-02T04:08:37.228Z,3.83
2022-08-02T04:11:23.781Z,3.23
2022-08-02T04:13:50.493Z,3.90
2022-08-02T04:16:29.022Z,3.50
2022-08-02T04:19:02.379Z,3.73
2022-08-02T04:21:41.401Z,3.70
2022-08-02T04:24:25.111Z,3.70
2022-08-02T04:26:58.113Z,4.03
2022-08-02T04:29:33.974Z,4.00
2022-08-02T04:32:01.349Z,3.57
2022-08-02T04:34:28.790Z,3.47
2022-08-02T04:36:55.427Z,3.60
2022-08-02T04:39:22.002Z,3.67
2022-08-02T04:41:48.588Z,3.63
2022-08-02T04:44:15.363Z,3.53
2022-08-02T04:46:43.608Z,3.70
2022-08-02T04:49:10.450Z,3.17
2022-08-02T04:51:39.806Z,3.50
2022-08-02T04:54:09.942Z,3.60
2022-08-02T04:56:37.896Z,3.67
2022-08-02T04:59:05.125Z,3.50
2022-08-02T05:01:32.220Z,3.60
2022-08-02T05:03:59.234Z,3.30
2022-08-02T05:06:25.791Z,3.60
2022-08-02T05:08:53.404Z,3.50
2022-08-02T05:11:21.864Z,3.97
2022-08-02T05:13:58.935Z,3.67
2022-08-02T05:16:31.525Z,3.87
2022-08-02T05:18:59.957Z,4.23
2022-08-02T05:21:26.657Z,3.80
2022-08-02T05:23:53.263Z,3.60
2022-08-02T05:26:19.927Z,3.57
2022-08-02T05:28:46.519Z,3.83
2022-08-02T05:31:13.604Z,3.77
2022-08-02T05:33:40.550Z,4.10
2022-08-02T05:36:09.258Z,3.90
2022-08-02T05:38:37.241Z,3.90
2022-08-02T05:41:05.211Z,3.67
2022-08-02T05:43:32.107Z,3.57
2022-08-02T05:45:58.868Z,3.43
2022-08-02T05:48:31.107Z,3.20
2022-08-02T05:51:05.227Z,3.20
2022-08-02T05:54:10.315Z,3.63
2022-08-02T05:57:06.945Z,3.80
2022-08-02T06:00:00.988Z,4.50
2022-08-02T06:02:35.756Z,4.57
2022-08-02T06:05:10.319Z,5.00
2022-08-02T06:07:38.163Z,3.30
2022-08-02T06:10:06.525Z,3.70
2022-08-02T06:12:41.076Z,3.50
2022-08-02T06:15:08.202Z,3.20
2022-08-02T06:17:35.506Z,3.00
2022-08-02T06:20:11.826Z,3.00
2022-08-02T06:22:42.815Z,3.63
2022-08-02T06:25:11.500Z,3.10
2022-08-02T06:28:00.026Z,3.20
2022-08-02T06:30:27.712Z,3.20
2022-08-02T06:32:54.667Z,2.83
2022-08-02T06:35:21.619Z,3.30
2022-08-02T06:37:58.929Z,3.03
2022-08-02T06:40:32.193Z,3.53
2022-08-02T06:43:23.276Z,3.17
2022-08-02T06:45:49.946Z,3.80
2022-08-02T06:48:16.990Z,3.80
2022-08-02T06:50:44.225Z,3.70
2022-08-02T06:53:12.004Z,3.60
2022-08-02T06:55:42.813Z,3.70
2022-08-02T06:58:11.739Z,3.53
2022-08-02T07:00:39.351Z,2.83
2022-08-02T07:03:06.583Z,3.50
2022-08-02T07:05:33.767Z,3.90
2022-08-02T07:08:02.011Z,4.47
2022-08-02T07:10:29.033Z,4.00
2022-08-02T07:12:59.636Z,4.30
2022-08-02T07:15:27.107Z,4.20
2022-08-02T07:17:54.227Z,4.23
2022-08-02T07:20:21.262Z,3.80
2022-08-02T07:22:48.379Z,3.77
2022-08-02T07:25:15.514Z,4.87
2022-08-02T07:27:42.548Z,5.33
2022-08-02T07:30:09.912Z,4.80
2022-08-02T07:32:36.994Z,5.03
2022-08-02T07:35:06.949Z,4.90
2022-08-02T07:37:53.134Z,4.67
2022-08-02T07:40:22.735Z,4.73
2022-08-02T07:42:52.222Z,4.83
2022-08-02T07:45:19.656Z,4.53
2022-08-02T07:47:46.896Z,4.83
2022-08-02T07:50:15.383Z,4.27
2022-08-02T07:52:42.790Z,4.90
2022-08-02T07:55:10.954Z,4.53
2022-08-02T07:57:42.477Z,4.80
2022-08-02T08:00:13.544Z,4.57
2022-08-02T08:02:40.842Z,5.47
2022-08-02T08:05:08.283Z,5.30
2022-08-02T08:07:35.401Z,5.17
2022-08-02T08:10:02.993Z,4.77
2022-08-02T08:12:31.141Z,5.17
2022-08-02T08:14:57.705Z,6.40
2022-08-02T08:17:24.543Z,5.57
2022-08-02T08:19:52.848Z,5.47
2022-08-02T08:22:20.730Z,5.20
2022-08-02T08:24:48.457Z,5.87
2022-08-02T08:27:16.062Z,5.17
2022-08-02T08:29:43.649Z,4.93
2022-08-02T08:32:17.633Z,5.43
2022-08-02T08:34:48.246Z,5.40
2022-08-02T08:37:18.343Z,5.17
2022-08-02T08:39:56.550Z,6.00
2022-08-02T08:42:24.371Z,5.10
2022-08-02T08:44:51.413Z,4.90
2022-08-02T08:47:19.126Z,5.20
2022-08-02T08:49:52.277Z,5.20
2022-08-02T08:52:20.438Z,5.22
2022-08-02T08:54:48.948Z,5.73
2022-08-02T08:57:18.078Z,4.90
2022-08-02T08:59:45.549Z,5.13
2022-08-02T09:02:21.456Z,4.60
2022-08-02T09:04:54.663Z,5.67
2022-08-02T09:07:22.289Z,4.60
2022-08-02T09:09:49.302Z,5.40
2022-08-02T09:12:17.289Z,4.80
2022-08-02T09:14:44.535Z,4.20
2022-08-02T09:17:12.661Z,4.90
2022-08-02T09:19:45.912Z,5.47
2022-08-02T09:22:16.086Z,4.63
2022-08-02T09:24:43.778Z,4.40
2022-08-02T09:27:12.168Z,4.47
2022-08-02T09:30:05.896Z,4.03
2022-08-02T09:32:29.604Z,5.45
2022-08-02T09:34:56.634Z,5.28
2022-08-02T09:37:24.834Z,4.32
2022-08-02T09:39:51.915Z,4.70
2022-08-02T09:42:30.704Z,4.80
2022-08-02T09:44:58.905Z,4.43
2022-08-02T09:47:26.485Z,5.03
2022-08-02T09:49:55.427Z,4.27
2022-08-02T09:52:43.230Z,4.40
2022-08-02T09:55:11.690Z,4.50
2022-08-02T09:57:38.847Z,4.00
2022-08-02T10:00:14.845Z,4.40
2022-08-02T10:03:04.191Z,4.40
2022-08-02T10:05:34.676Z,4.40
2022-08-02T10:08:10.162Z,4.30
2022-08-02T10:10:37.227Z,4.53
2022-08-02T10:13:04.277Z,4.28
2022-08-02T10:15:31.629Z,4.20
2022-08-02T10:17:58.741Z,4.32
2022-08-02T10:20:26.865Z,4.85
2022-08-02T10:22:54.375Z,4.47
2022-08-02T10:25:22.401Z,4.30
2022-08-02T10:28:04.791Z,3.95
2022-08-02T10:30:32.942Z,4.60
2022-08-02T10:33:01.479Z,4.18
2022-08-02T10:35:31.033Z,4.28
2022-08-02T10:38:03.317Z,4.07
2022-08-02T10:40:50.762Z,3.80
2022-08-02T10:43:32.445Z,3.55
2022-08-02T10:46:21.549Z,4.35
2022-08-02T10:52:02.523Z,4.05
2022-08-02T10:54:31.980Z,3.70
2022-08-02T10:57:01.399Z,3.70
2022-08-02T10:59:32.182Z,3.95
2022-08-02T11:02:04.138Z,3.85
2022-08-02T11:04:36.849Z,4.03
2022-08-02T11:07:11.733Z,3.67
2022-08-02T11:09:38.449Z,3.25
2022-08-02T11:12:18.094Z,3.50
2022-08-02T11:15:00.287Z,3.55
2022-08-02T11:17:38.104Z,3.72
2022-08-02T11:20:08.862Z,3.40
2022-08-02T11:22:35.722Z,3.58
2022-08-02T11:25:48.477Z,3.60
2022-08-02T11:28:18.372Z,3.60
2022-08-02T11:30:57.209Z,3.22
2022-08-02T11:33:31.095Z,3.17
2022-08-02T11:36:02.653Z,3.15
2022-08-02T11:38:29.433Z,3.58
2022-08-02T11:40:57.248Z,3.40
2022-08-02T11:43:27.001Z,3.22
2022-08-02T11:45:55.378Z,3.20
2022-08-02T11:48:33.306Z,3.58
2022-08-02T11:51:14.139Z,3.20
2022-08-02T11:53:54.583Z,3.35
2022-08-02T11:56:35.058Z,2.97
2022-08-02T11:59:05.676Z,3.40
2022-08-02T12:01:44.794Z,3.35
2022-08-02T12:04:16.986Z,3.00
2022-08-02T12:06:43.905Z,3.05
2022-08-02T12:09:18.680Z,2.90
2022-08-02T12:11:49.967Z,3.42
2022-08-02T12:14:17.115Z,3.03
2022-08-02T12:17:02.222Z,3.30
2022-08-02T12:19:29.411Z,3.33
2022-08-02T12:22:11.191Z,2.80
2022-08-02T12:24:39.660Z,3.30
2022-08-02T12:27:07.429Z,3.15
2022-08-02T12:29:57.816Z,3.10
2022-08-02T12:32:25.016Z,2.65
2022-08-02T12:35:26.484Z,2.67
2022-08-02T12:37:53.976Z,2.83
2022-08-02T12:40:25.213Z,2.63
2022-08-02T12:42:55.374Z,2.90
2022-08-02T12:45:22.702Z,3.00
2022-08-02T12:47:52.287Z,2.80
2022-08-02T12:50:22.075Z,2.90
2022-08-02T12:52:50.327Z,2.53
2022-08-02T12:55:20.965Z,2.78
2022-08-02T12:58:01.886Z,3.20
2022-08-02T13:00:30.127Z,3.00
2022-08-02T13:02:58.563Z,3.05
2022-08-02T13:05:26.497Z,2.85
2022-08-02T13:07:53.289Z,2.83
2022-08-02T13:10:20.961Z,2.80
2022-08-02T13:12:47.638Z,2.97
2022-08-02T13:15:49.030Z,2.60
2022-08-02T13:18:01.484Z,2.85
2022-08-02T13:20:29.100Z,3.10
2022-08-02T13:22:56.532Z,2.65
2022-08-02T13:25:30.867Z,2.83
2022-08-02T13:27:57.435Z,2.60
2022-08-02T13:30:24.026Z,2.50
2022-08-02T13:32:50.611Z,2.58
2022-08-02T13:35:18.045Z,2.47
2022-08-02T13:37:45.405Z,2.83
2022-08-02T13:40:21.787Z,2.88
2022-08-02T13:42:49.157Z,2.70
2022-08-02T13:45:16.249Z,2.60
2022-08-02T13:48:04.634Z,2.70
2022-08-02T13:50:31.458Z,2.65
2022-08-02T13:52:58.043Z,2.70
2022-08-02T13:55:24.939Z,2.80
2022-08-02T13:57:53.731Z,2.88
2022-08-02T14:00:35.491Z,2.58
2022-08-02T14:03:04.114Z,2.55
2022-08-02T14:05:39.523Z,2.60
2022-08-02T14:08:20.614Z,2.67
2022-08-02T14:10:47.954Z,2.40
2022-08-02T14:13:14.670Z,2.75
2022-08-02T14:15:41.502Z,2.55
2022-08-02T14:18:08.264Z,2.58
2022-08-02T14:20:34.930Z,2.40
2022-08-02T14:23:01.514Z,2.40
2022-08-02T14:25:28.101Z,2.88
2022-08-02T14:27:54.701Z,2.53
2022-08-02T14:30:23.175Z,2.78
2022-08-02T14:32:50.899Z,2.20
2022-08-02T14:35:17.595Z,2.58
2022-08-02T14:37:44.190Z,2.92
2022-08-02T14:40:31.264Z,2.80
2022-08-02T14:42:58.360Z,2.55
2022-08-02T14:45:26.159Z,2.30
2022-08-02T14:48:03.659Z,2.53
2022-08-02T14:50:30.711Z,2.50
2022-08-02T14:52:57.290Z,2.97
2022-08-02T14:55:23.904Z,2.65
2022-08-02T14:57:50.965Z,2.72
2022-08-02T15:00:17.920Z,2.50
2022-08-02T15:02:44.712Z,2.60
2022-08-02T15:05:11.389Z,2.47
2022-08-02T15:07:42.530Z,2.53
2022-08-02T15:10:10.873Z,2.85
2022-08-02T15:12:37.445Z,2.38
2022-08-02T15:15:04.415Z,2.70
2022-08-02T15:17:31.838Z,2.72
2022-08-02T15:20:02.012Z,2.47
2022-08-02T15:22:37.955Z,2.58
2022-08-02T15:25:04.981Z,2.55
2022-08-02T15:27:41.434Z,2.40
2022-08-02T15:30:08.950Z,3.00
2022-08-02T15:32:35.527Z,2.88
2022-08-02T15:35:02.201Z,2.85
2022-08-02T15:37:30.950Z,2.25
2022-08-02T15:39:58.882Z,2.60
2022-08-02T15:42:30.545Z,2.70
2022-08-02T15:44:57.772Z,2.75
2022-08-02T15:47:24.359Z,2.40
2022-08-02T15:49:50.968Z,2.45
2022-08-02T15:52:17.603Z,2.65
2022-08-02T15:54:44.224Z,2.72
2022-08-02T15:57:10.966Z,2.45
2022-08-02T15:59:40.389Z,2.60
2022-08-02T16:02:07.760Z,2.50
2022-08-02T16:04:34.800Z,2.70
2022-08-02T16:07:01.893Z,2.38
2022-08-02T16:09:29.062Z,2.72
2022-08-02T16:11:56.087Z,2.50
2022-08-02T16:14:23.109Z,2.58
2022-08-02T16:16:50.111Z,2.78
2022-08-02T16:19:46.062Z,2.78
2022-08-02T16:22:04.344Z,2.45
2022-08-02T16:24:31.676Z,2.75
2022-08-02T16:26:58.983Z,2.47
2022-08-02T16:29:26.699Z,2.47
2022-08-02T16:32:00.031Z,2.30
2022-08-02T16:34:26.617Z,2.95
2022-08-02T16:36:53.255Z,2.50
2022-08-02T16:39:19.828Z,2.63
2022-08-02T16:41:52.005Z,2.53
2022-08-02T16:44:29.288Z,2.42
2022-08-02T16:47:11.352Z,2.65
2022-08-02T16:50:05.557Z,2.35
2022-08-02T16:52:26.680Z,2.50
2022-08-02T16:54:53.263Z,2.22
2022-08-02T16:57:20.284Z,2.83
2022-08-02T16:59:57.335Z,2.67
2022-08-02T17:02:25.649Z,2.60
2022-08-02T17:04:52.372Z,2.67
2022-08-02T17:08:08.097Z,2.53
2022-08-02T17:10:09.373Z,2.60
2022-08-02T17:12:36.926Z,2.40
2022-08-02T17:16:07.899Z,2.60
2022-08-02T17:17:51.687Z,2.60
2022-08-02T17:20:18.519Z,2.60
2022-08-02T17:22:45.777Z,2.30
2022-08-02T17:25:15.886Z,2.80
2022-08-02T17:27:44.166Z,2.80
2022-08-02T17:30:12.873Z,2.53
2022-08-02T17:32:40.071Z,2.83
2022-08-02T17:35:12.521Z,2.42
2022-08-02T17:37:42.204Z,2.53
2022-08-02T17:40:09.643Z,2.53
2022-08-02T17:42:36.621Z,2.42
2022-08-02T17:45:16.572Z,2.50
2022-08-02T17:47:43.689Z,2.40
2022-08-02T17:50:31.332Z,2.47
2022-08-02T17:52:58.368Z,2.50
2022-08-02T17:55:25.340Z,2.70
2022-08-02T17:57:57.439Z,2.55
2022-08-02T18:00:26.697Z,2.50
2022-08-02T18:02:55.366Z,2.78
2022-08-02T18:05:39.219Z,4.20
2022-08-02T18:08:08.810Z,2.80
2022-08-02T18:10:35.775Z,3.78
2022-08-02T18:13:03.647Z,2.40
2022-08-02T18:18:19.305Z,2.88
2022-08-02T18:20:57.226Z,2.92
2022-08-02T18:23:24.289Z,2.92
2022-08-02T18:25:55.154Z,3.45
2022-08-02T18:28:26.740Z,2.80
2022-08-02T18:30:53.821Z,2.72
2022-08-02T18:33:58.786Z,2.50
2022-08-02T18:36:08.059Z,2.40
2022-08-02T18:38:34.699Z,2.40
2022-08-02T18:41:06.915Z,2.63
2022-08-02T18:43:43.734Z,3.25
2022-08-02T18:46:15.556Z,2.92
2022-08-02T18:48:46.888Z,2.80
2022-08-02T18:51:15.963Z,2.63
2022-08-02T18:53:43.222Z,2.80
2022-08-02T18:59:03.184Z,2.60
2022-08-02T19:01:32.687Z,3.20
2022-08-02T19:04:02.850Z,2.20
2022-08-02T19:06:30.039Z,2.70
2022-08-02T19:09:05.684Z,2.60
2022-08-02T19:11:38.426Z,3.07
2022-08-02T19:14:07.930Z,2.40
2022-08-02T19:16:36.836Z,2.67
2022-08-02T19:19:05.530Z,2.50
2022-08-02T19:22:26.582Z,2.70
2022-08-02T19:24:19.123Z,2.47
2022-08-02T19:26:51.647Z,2.50
2022-08-02T19:29:42.166Z,2.50
2022-08-02T19:32:40.550Z,2.43
2022-08-02T19:34:55.338Z,2.57
2022-08-02T19:37:21.984Z,2.70
2022-08-02T19:39:48.698Z,2.50
2022-08-02T19:42:16.890Z,2.70
2022-08-02T19:44:45.919Z,2.57
2022-08-02T19:47:19.013Z,2.97
2022-08-02T19:49:48.778Z,3.40
2022-08-02T19:52:21.110Z,3.27
2022-08-02T19:54:56.097Z,3.10
2022-08-02T19:57:25.237Z,2.97
2022-08-02T19:59:52.584Z,2.70
2022-08-02T20:02:21.104Z,2.80
2022-08-02T20:04:49.943Z,2.70
2022-08-02T20:07:48.231Z,3.10
2022-08-02T20:10:10.882Z,2.80
2022-08-02T20:12:38.849Z,2.77
2022-08-02T20:15:14.414Z,3.20
2022-08-02T20:17:47.304Z,2.77
2022-08-02T20:20:14.740Z,2.67
2022-08-02T20:22:59.925Z,2.73
2022-08-02T20:25:28.861Z,2.90
2022-08-02T20:27:55.771Z,3.63
2022-08-02T20:30:25.522Z,3.63
2022-08-02T20:32:58.897Z,2.83
2022-08-02T20:35:41.726Z,3.27
2022-08-02T20:38:09.762Z,3.20
2022-08-02T20:40:38.733Z,2.87
2022-08-02T20:43:05.348Z,2.90
2022-08-02T20:45:34.714Z,2.97
2022-08-02T20:48:01.338Z,3.20
2022-08-02T20:50:46.714Z,2.93
2022-08-02T20:53:24.071Z,3.17
2022-08-02T20:55:54.788Z,3.30
2022-08-02T20:58:26.928Z,3.27
2022-08-02T21:00:58.456Z,3.33
2022-08-02T21:03:25.332Z,3.07
2022-08-02T21:06:07.737Z,3.45
2022-08-02T21:08:34.786Z,3.50
2022-08-02T21:11:01.441Z,3.27
2022-08-02T21:13:47.290Z,3.10
2022-08-02T21:16:23.051Z,3.47
2022-08-02T21:18:55.608Z,3.30
2022-08-02T21:21:26.541Z,3.63
2022-08-02T21:23:54.634Z,3.50
2022-08-02T21:26:27.796Z,3.80
2022-08-02T21:28:55.436Z,3.78
2022-08-02T21:31:22.198Z,3.65
2022-08-02T21:33:58.651Z,3.20
2022-08-02T21:36:31.085Z,3.20
2022-08-02T21:39:04.458Z,3.50
2022-08-02T21:41:39.642Z,3.63
2022-08-02T21:44:17.887Z,4.20
2022-08-02T21:46:49.291Z,4.10
2022-08-02T21:49:20.889Z,4.17
2022-08-02T21:51:54.557Z,3.43
2022-08-02T21:54:21.873Z,3.53
2022-08-02T21:56:52.011Z,3.90
2022-08-02T21:59:25.910Z,3.50
2022-08-02T22:01:56.479Z,3.65
2022-08-02T22:04:24.865Z,3.47
2022-08-02T22:06:52.663Z,3.33
2022-08-02T22:09:42.065Z,3.33
2022-08-02T22:12:12.673Z,3.30
2022-08-02T22:14:49.570Z,3.23
2022-08-02T22:17:20.284Z,3.60
2022-08-02T22:19:53.988Z,3.47
2022-08-02T22:22:28.439Z,3.50
2022-08-02T22:24:56.703Z,3.30
2022-08-02T22:27:24.051Z,3.43
2022-08-02T22:30:11.093Z,3.50
2022-08-02T22:32:56.549Z,3.60
2022-08-02T22:35:23.291Z,3.47
2022-08-02T22:38:14.954Z,3.37
2022-08-02T22:40:36.648Z,3.37
2022-08-02T22:43:03.238Z,3.47
2022-08-02T22:45:30.561Z,3.50
2022-08-02T22:48:03.613Z,3.60
2022-08-02T22:50:30.379Z,3.80
2022-08-02T22:52:57.337Z,3.33
2022-08-02T22:55:24.251Z,3.80
2022-08-02T22:57:58.714Z,3.47
2022-08-02T22:58:58.053Z,2.88
2022-08-02T22:59:00.020Z,2.70
2022-08-02T23:00:26.262Z,3.70
2022-08-02T23:02:52.913Z,3.70
2022-08-02T23:05:20.821Z,3.83
2022-08-02T23:07:47.553Z,3.90
2022-08-02T23:10:14.381Z,3.50
2022-08-02T23:12:41.056Z,4.20
2022-08-02T23:15:08.385Z,3.60
2022-08-02T23:17:53.482Z,3.80
2022-08-02T23:20:20.502Z,3.70
2022-08-02T23:22:47.106Z,3.70
2022-08-02T23:25:14.536Z,3.80
2022-08-02T23:27:50.209Z,3.60
2022-08-02T23:30:17.741Z,3.70
2022-08-02T23:32:44.392Z,3.70
2022-08-02T23:35:17.264Z,3.73
2022-08-02T23:38:00.375Z,4.13
2022-08-02T23:40:39.250Z,3.87
2022-08-02T23:43:13.445Z,3.67
2022-08-02T23:45:41.485Z,3.63
2022-08-02T23:48:08.086Z,3.80
2022-08-02T23:50:34.674Z,3.90
2022-08-02T23:53:01.239Z,3.60
2022-08-02T23:55:27.817Z,3.37
2022-08-02T23:57:54.416Z,3.77
